PWSweather.com
Personal Weather Stations
Station Observations
DW1039
Liberty & Fairfield Townships, Hamilton, OH 45011

Liberty & Fairfield TownshipsHamilton, OH 45011

Lat: 39.3933, Lon: -84.477

Elevation: 780

Station Type: Davis Vantage Pro2 (Daytime Fan Aspirated)

http://www.lfweathercenter.com/

High Low Average
Temperature 39.0°F3.9°C 20.8°F-6.2°C 28.3°F-2.1°C
Dew Point 23.2°F-4.9°C 12.0°F-11.1°C 16.0°F-8.9°C
Winds 14.0 mph 22.5 kmh Calm Calm 4.0 mph S6.4 kmh S
Wind Gusts 17.0 mph27.4 kmh -- 9.0 mph14.5 kmh
Humidity 70% 48% 60%
Pressure 30.32 in1026.8 mb 30.02 in1016.6 mb -
Precipitation 0.00 in0.0 mm - -
Hour Temp Dew Point Humidity Winds Wind Gusts Pressure Precip Precip Rate Daily Precip Total
12:00 AM 21.4°F-5.9°C 12.8°F-10.7°C 69% 4.0 mph SSW6.4 kmh SSW 7.0 mph11.3 kmh 30.32 in1026.8 mb 0.00 in0.0 mm 0.00 in/hr0.0 mm/hr 0.00 in0.0 mm
12:10 AM 21.4°F-5.9°C 13.2°F-10.4°C 70% 3.0 mph SSW4.8 kmh SSW 5.0 mph8.0 kmh 30.31 in1026.4 mb 0.00 in0.0 mm 0.00 in/hr0.0 mm/hr 0.00 in0.0 mm
12:20 AM 21.3°F-5.9°C 12.7°F-10.7°C 69% 3.0 mph SE4.8 kmh SE 6.0 mph9.7 kmh 30.31 in1026.4 mb 0.00 in0.0 mm 0.00 in/hr0.0 mm/hr 0.00 in0.0 mm
12:30 AM 21.5°F-5.8°C 12.6°F-10.8°C 68% 2.0 mph SSE3.2 kmh SSE 6.0 mph9.7 kmh 30.31 in1026.4 mb 0.00 in0.0 mm 0.00 in/hr0.0 mm/hr 0.00 in0.0 mm
12:40 AM 21.5°F-5.8°C 12.9°F-10.6°C 69% 3.0 mph SE4.8 kmh SE 5.0 mph8.0 kmh 30.30 in1026.1 mb 0.00 in0.0 mm 0.00 in/hr0.0 mm/hr 0.00 in0.0 mm
12:50 AM 21.7°F-5.7°C 12.8°F-10.7°C 68% 4.0 mph SSE6.4 kmh SSE 7.0 mph11.3 kmh 30.30 in1026.1 mb 0.00 in0.0 mm 0.00 in/hr0.0 mm/hr 0.00 in0.0 mm
01:01 AM 21.7°F-5.7°C 13.1°F-10.5°C 69% 4.0 mph S6.4 kmh S 6.0 mph9.7 kmh 30.30 in1026.1 mb 0.00 in0.0 mm 0.00 in/hr0.0 mm/hr 0.00 in0.0 mm
01:10 AM 21.8°F-5.7°C 12.9°F-10.6°C 68% Calm Calm 7.0 mph11.3 kmh 30.30 in1026.1 mb 0.00 in0.0 mm 0.00 in/hr0.0 mm/hr 0.00 in0.0 mm
01:20 AM 21.9°F-5.6°C 12.6°F-10.8°C 67% 2.0 mph S3.2 kmh S 6.0 mph9.7 kmh 30.30 in1026.1 mb 0.00 in0.0 mm 0.00 in/hr0.0 mm/hr 0.00 in0.0 mm
01:30 AM 21.9°F-5.6°C 12.6°F-10.8°C 67% 2.0 mph SSE3.2 kmh SSE 5.0 mph8.0 kmh 30.31 in1026.4 mb 0.00 in0.0 mm 0.00 in/hr0.0 mm/hr 0.00 in0.0 mm
01:40 AM 21.6°F-5.8°C 12.7°F-10.7°C 68% Calm Calm 4.0 mph6.4 kmh 30.31 in1026.4 mb 0.00 in0.0 mm 0.00 in/hr0.0 mm/hr 0.00 in0.0 mm
01:50 AM 21.3°F-5.9°C 12.4°F-10.9°C 68% Calm Calm 5.0 mph8.0 kmh 30.30 in1026.1 mb 0.00 in0.0 mm 0.00 in/hr0.0 mm/hr 0.00 in0.0 mm
02:00 AM 21.3°F-5.9°C 12.4°F-10.9°C 68% Calm Calm 4.0 mph6.4 kmh 30.31 in1026.4 mb 0.00 in0.0 mm 0.00 in/hr0.0 mm/hr 0.00 in0.0 mm
02:11 AM 21.1°F-6.1°C 12.2°F-11.0°C 68% Calm Calm 2.0 mph3.2 kmh 30.30 in1026.1 mb 0.00 in0.0 mm 0.00 in/hr0.0 mm/hr 0.00 in0.0 mm
02:20 AM 21.2°F-6.0°C 12.3°F-10.9°C 68% Calm Calm 4.0 mph6.4 kmh 30.30 in1026.1 mb 0.00 in0.0 mm 0.00 in/hr0.0 mm/hr 0.00 in0.0 mm
02:30 AM 21.2°F-6.0°C 12.0°F-11.1°C 67% Calm Calm 5.0 mph8.0 kmh 30.30 in1026.1 mb 0.00 in0.0 mm 0.00 in/hr0.0 mm/hr 0.00 in0.0 mm
02:40 AM 21.1°F-6.1°C 12.2°F-11.0°C 68% Calm Calm 2.0 mph3.2 kmh 30.30 in1026.1 mb 0.00 in0.0 mm 0.00 in/hr0.0 mm/hr 0.00 in0.0 mm
02:50 AM 20.9°F-6.2°C 12.0°F-11.1°C 68% Calm Calm 2.0 mph3.2 kmh 30.31 in1026.4 mb 0.00 in0.0 mm 0.00 in/hr0.0 mm/hr 0.00 in0.0 mm
03:01 AM 20.9°F-6.2°C 12.4°F-10.9°C 69% Calm Calm 3.0 mph4.8 kmh 30.31 in1026.4 mb 0.00 in0.0 mm 0.00 in/hr0.0 mm/hr 0.00 in0.0 mm
03:11 AM 20.9°F-6.2°C 12.4°F-10.9°C 69% Calm Calm 3.0 mph4.8 kmh 30.31 in1026.4 mb 0.00 in0.0 mm 0.00 in/hr0.0 mm/hr 0.00 in0.0 mm
03:21 AM 20.9°F-6.2°C 12.0°F-11.1°C 68% Calm Calm -- 30.32 in1026.8 mb 0.00 in0.0 mm 0.00 in/hr0.0 mm/hr 0.00 in0.0 mm
03:31 AM 20.8°F-6.2°C 12.3°F-10.9°C 69% Calm Calm 3.0 mph4.8 kmh 30.32 in1026.8 mb 0.00 in0.0 mm 0.00 in/hr0.0 mm/hr 0.00 in0.0 mm
03:41 AM 20.8°F-6.2°C 12.3°F-10.9°C 69% Calm Calm 4.0 mph6.4 kmh 30.31 in1026.4 mb 0.00 in0.0 mm 0.00 in/hr0.0 mm/hr 0.00 in0.0 mm
03:51 AM 20.9°F-6.2°C 12.4°F-10.9°C 69% Calm Calm 3.0 mph4.8 kmh 30.31 in1026.4 mb 0.00 in0.0 mm 0.00 in/hr0.0 mm/hr 0.00 in0.0 mm
04:01 AM 21.2°F-6.0°C 12.6°F-10.8°C 69% 6.0 mph S9.7 kmh S 9.0 mph14.5 kmh 30.30 in1026.1 mb 0.00 in0.0 mm 0.00 in/hr0.0 mm/hr 0.00 in0.0 mm
04:11 AM 21.5°F-5.8°C 12.3°F-10.9°C 67% Calm Calm 5.0 mph8.0 kmh 30.30 in1026.1 mb 0.00 in0.0 mm 0.00 in/hr0.0 mm/hr 0.00 in0.0 mm
04:20 AM 21.2°F-6.0°C 12.6°F-10.8°C 69% 4.0 mph S6.4 kmh S 6.0 mph9.7 kmh 30.28 in1025.4 mb 0.00 in0.0 mm 0.00 in/hr0.0 mm/hr 0.00 in0.0 mm
04:30 AM 21.2°F-6.0°C 12.6°F-10.8°C 69% 4.0 mph N6.4 kmh N 6.0 mph9.7 kmh 30.27 in1025.1 mb 0.00 in0.0 mm 0.00 in/hr0.0 mm/hr 0.00 in0.0 mm
04:40 AM 21.2°F-6.0°C 12.6°F-10.8°C 69% 2.0 mph SSE3.2 kmh SSE 5.0 mph8.0 kmh 30.27 in1025.1 mb 0.00 in0.0 mm 0.00 in/hr0.0 mm/hr 0.00 in0.0 mm
04:50 AM 21.2°F-6.0°C 12.6°F-10.8°C 69% Calm Calm 7.0 mph11.3 kmh 30.27 in1025.1 mb 0.00 in0.0 mm 0.00 in/hr0.0 mm/hr 0.00 in0.0 mm
05:00 AM 21.2°F-6.0°C 13.0°F-10.6°C 70% Calm Calm 5.0 mph8.0 kmh 30.26 in1024.7 mb 0.00 in0.0 mm 0.00 in/hr0.0 mm/hr 0.00 in0.0 mm
05:10 AM 21.1°F-6.1°C 12.9°F-10.6°C 70% 2.0 mph SSE3.2 kmh SSE 6.0 mph9.7 kmh 30.25 in1024.4 mb 0.00 in0.0 mm 0.00 in/hr0.0 mm/hr 0.00 in0.0 mm
05:20 AM 21.4°F-5.9°C 13.2°F-10.4°C 70% Calm Calm 8.0 mph12.9 kmh 30.25 in1024.4 mb 0.00 in0.0 mm 0.00 in/hr0.0 mm/hr 0.00 in0.0 mm
05:30 AM 21.5°F-5.8°C 13.3°F-10.4°C 70% 4.0 mph SSE6.4 kmh SSE 9.0 mph14.5 kmh 30.24 in1024.0 mb 0.00 in0.0 mm 0.00 in/hr0.0 mm/hr 0.00 in0.0 mm
05:40 AM 21.6°F-5.8°C 13.3°F-10.4°C 70% 4.0 mph SSE6.4 kmh SSE 11.0 mph17.7 kmh 30.23 in1023.7 mb 0.00 in0.0 mm 0.00 in/hr0.0 mm/hr 0.00 in0.0 mm
05:50 AM 21.6°F-5.8°C 13.3°F-10.4°C 70% 4.0 mph SE6.4 kmh SE 9.0 mph14.5 kmh 30.23 in1023.7 mb 0.00 in0.0 mm 0.00 in/hr0.0 mm/hr 0.00 in0.0 mm
06:00 AM 22.0°F-5.6°C 13.7°F-10.2°C 70% 6.0 mph SSE9.7 kmh SSE 10.0 mph16.1 kmh 30.22 in1023.4 mb 0.00 in0.0 mm 0.00 in/hr0.0 mm/hr 0.00 in0.0 mm
06:10 AM 22.4°F-5.3°C 13.8°F-10.1°C 69% 7.0 mph SE11.3 kmh SE 12.0 mph19.3 kmh 30.22 in1023.4 mb 0.00 in0.0 mm 0.00 in/hr0.0 mm/hr 0.00 in0.0 mm
06:20 AM 22.7°F-5.2°C 14.1°F-9.9°C 69% 7.0 mph S11.3 kmh S 11.0 mph17.7 kmh 30.22 in1023.4 mb 0.00 in0.0 mm 0.00 in/hr0.0 mm/hr 0.00 in0.0 mm
06:30 AM 22.8°F-5.1°C 13.8°F-10.1°C 68% 2.0 mph SE3.2 kmh SE 13.0 mph20.9 kmh 30.21 in1023.0 mb 0.00 in0.0 mm 0.00 in/hr0.0 mm/hr 0.00 in0.0 mm
06:40 AM 22.9°F-5.1°C 13.9°F-10.1°C 68% 5.0 mph SSE8.0 kmh SSE 10.0 mph16.1 kmh 30.21 in1023.0 mb 0.00 in0.0 mm 0.00 in/hr0.0 mm/hr 0.00 in0.0 mm
06:50 AM 23.1°F-4.9°C 13.8°F-10.1°C 67% 4.0 mph SSE6.4 kmh SSE 13.0 mph20.9 kmh 30.20 in1022.7 mb 0.00 in0.0 mm 0.00 in/hr0.0 mm/hr 0.00 in0.0 mm
07:00 AM 23.1°F-4.9°C 13.8°F-10.1°C 67% 5.0 mph S8.0 kmh S 11.0 mph17.7 kmh 30.20 in1022.7 mb 0.00 in0.0 mm 0.00 in/hr0.0 mm/hr 0.00 in0.0 mm
07:10 AM 23.3°F-4.8°C 14.0°F-10.0°C 67% 1.0 mph SSW1.6 kmh SSW 10.0 mph16.1 kmh 30.20 in1022.7 mb 0.00 in0.0 mm 0.00 in/hr0.0 mm/hr 0.00 in0.0 mm
07:20 AM 23.4°F-4.8°C 14.1°F-9.9°C 67% 4.0 mph SSE6.4 kmh SSE 11.0 mph17.7 kmh 30.20 in1022.7 mb 0.00 in0.0 mm 0.00 in/hr0.0 mm/hr 0.00 in0.0 mm
07:30 AM 23.4°F-4.8°C 14.1°F-9.9°C 67% 1.0 mph S1.6 kmh S 4.0 mph6.4 kmh 30.20 in1022.7 mb 0.00 in0.0 mm 0.00 in/hr0.0 mm/hr 0.00 in0.0 mm
07:40 AM 23.5°F-4.7°C 14.2°F-9.9°C 67% Calm Calm 4.0 mph6.4 kmh 30.20 in1022.7 mb 0.00 in0.0 mm 0.00 in/hr0.0 mm/hr 0.00 in0.0 mm
07:50 AM 23.5°F-4.7°C 14.5°F-9.7°C 68% 4.0 mph SSE6.4 kmh SSE 6.0 mph9.7 kmh 30.19 in1022.4 mb 0.00 in0.0 mm 0.00 in/hr0.0 mm/hr 0.00 in0.0 mm
08:00 AM 23.7°F-4.6°C 14.4°F-9.8°C 67% 5.0 mph SE8.0 kmh SE 7.0 mph11.3 kmh 30.19 in1022.4 mb 0.00 in0.0 mm 0.00 in/hr0.0 mm/hr 0.00 in0.0 mm
08:10 AM 23.9°F-4.5°C 14.6°F-9.7°C 67% Calm Calm 6.0 mph9.7 kmh 30.19 in1022.4 mb 0.00 in0.0 mm 0.00 in/hr0.0 mm/hr 0.00 in0.0 mm
08:20 AM 23.9°F-4.5°C 14.6°F-9.7°C 67% 1.0 mph SSE1.6 kmh SSE 5.0 mph8.0 kmh 30.19 in1022.4 mb 0.00 in0.0 mm 0.00 in/hr0.0 mm/hr 0.00 in0.0 mm
08:30 AM 24.1°F-4.4°C 14.7°F-9.6°C 67% Calm Calm 6.0 mph9.7 kmh 30.19 in1022.4 mb 0.00 in0.0 mm 0.00 in/hr0.0 mm/hr 0.00 in0.0 mm
08:40 AM 24.3°F-4.3°C 14.9°F-9.5°C 67% 1.0 mph SSE1.6 kmh SSE 6.0 mph9.7 kmh 30.19 in1022.4 mb 0.00 in0.0 mm 0.00 in/hr0.0 mm/hr 0.00 in0.0 mm
08:50 AM 24.4°F-4.2°C 15.0°F-9.4°C 67% 1.0 mph SSE1.6 kmh SSE 6.0 mph9.7 kmh 30.19 in1022.4 mb 0.00 in0.0 mm 0.00 in/hr0.0 mm/hr 0.00 in0.0 mm
09:00 AM 24.6°F-4.1°C 15.2°F-9.3°C 67% 1.0 mph SE1.6 kmh SE 4.0 mph6.4 kmh 30.19 in1022.4 mb 0.00 in0.0 mm 0.00 in/hr0.0 mm/hr 0.00 in0.0 mm
09:10 AM 24.9°F-3.9°C 15.2°F-9.3°C 66% Calm Calm 5.0 mph8.0 kmh 30.19 in1022.4 mb 0.00 in0.0 mm 0.00 in/hr0.0 mm/hr 0.00 in0.0 mm
09:20 AM 25.2°F-3.8°C 15.1°F-9.4°C 65% Calm Calm 5.0 mph8.0 kmh 30.19 in1022.4 mb 0.00 in0.0 mm 0.00 in/hr0.0 mm/hr 0.00 in0.0 mm
09:30 AM 25.5°F-3.6°C 15.4°F-9.2°C 65% 4.0 mph S6.4 kmh S 6.0 mph9.7 kmh 30.18 in1022.0 mb 0.00 in0.0 mm 0.00 in/hr0.0 mm/hr 0.00 in0.0 mm
09:40 AM 26.0°F-3.3°C 15.2°F-9.3°C 63% 4.0 mph S6.4 kmh S 8.0 mph12.9 kmh 30.18 in1022.0 mb 0.00 in0.0 mm 0.00 in/hr0.0 mm/hr 0.00 in0.0 mm
09:50 AM 26.4°F-3.1°C 15.5°F-9.2°C 63% 4.0 mph S6.4 kmh S 10.0 mph16.1 kmh 30.17 in1021.7 mb 0.00 in0.0 mm 0.00 in/hr0.0 mm/hr 0.00 in0.0 mm
10:00 AM 26.7°F-2.9°C 15.8°F-9.0°C 63% 5.0 mph SSE8.0 kmh SSE 11.0 mph17.7 kmh 30.17 in1021.7 mb 0.00 in0.0 mm 0.00 in/hr0.0 mm/hr 0.00 in0.0 mm
10:10 AM 27.1°F-2.7°C 15.5°F-9.2°C 61% 4.0 mph SSW6.4 kmh SSW 10.0 mph16.1 kmh 30.17 in1021.7 mb 0.00 in0.0 mm 0.00 in/hr0.0 mm/hr 0.00 in0.0 mm
10:20 AM 27.8°F-2.3°C 15.4°F-9.2°C 59% 7.0 mph S11.3 kmh S 10.0 mph16.1 kmh 30.17 in1021.7 mb 0.00 in0.0 mm 0.00 in/hr0.0 mm/hr 0.00 in0.0 mm
10:30 AM 28.3°F-2.1°C 15.4°F-9.2°C 58% 7.0 mph S11.3 kmh S 12.0 mph19.3 kmh 30.17 in1021.7 mb 0.00 in0.0 mm 0.00 in/hr0.0 mm/hr 0.00 in0.0 mm
10:40 AM 28.8°F-1.8°C 15.5°F-9.2°C 57% 7.0 mph S11.3 kmh S 9.0 mph14.5 kmh 30.18 in1022.0 mb 0.00 in0.0 mm 0.00 in/hr0.0 mm/hr 0.00 in0.0 mm
10:50 AM 29.3°F-1.5°C 15.2°F-9.3°C 55% 5.0 mph SSW8.0 kmh SSW 15.0 mph24.1 kmh 30.17 in1021.7 mb 0.00 in0.0 mm 0.00 in/hr0.0 mm/hr 0.00 in0.0 mm
11:00 AM 29.7°F-1.3°C 14.7°F-9.6°C 53% 6.0 mph SSW9.7 kmh SSW 13.0 mph20.9 kmh 30.16 in1021.3 mb 0.00 in0.0 mm 0.00 in/hr0.0 mm/hr 0.00 in0.0 mm
11:10 AM 29.9°F-1.2°C 15.7°F-9.1°C 55% 7.0 mph SW11.3 kmh SW 13.0 mph20.9 kmh 30.16 in1021.3 mb 0.00 in0.0 mm 0.00 in/hr0.0 mm/hr 0.00 in0.0 mm
11:20 AM 30.2°F-1.0°C 15.6°F-9.1°C 54% 9.0 mph SSE14.5 kmh SSE 15.0 mph24.1 kmh 30.15 in1021.0 mb 0.00 in0.0 mm 0.00 in/hr0.0 mm/hr 0.00 in0.0 mm
11:30 AM 30.3°F-0.9°C 15.2°F-9.3°C 53% 5.0 mph SSW8.0 kmh SSW 13.0 mph20.9 kmh 30.15 in1021.0 mb 0.00 in0.0 mm 0.00 in/hr0.0 mm/hr 0.00 in0.0 mm
11:40 AM 30.4°F-0.9°C 15.3°F-9.3°C 53% 6.0 mph SSW9.7 kmh SSW 17.0 mph27.4 kmh 30.14 in1020.7 mb 0.00 in0.0 mm 0.00 in/hr0.0 mm/hr 0.00 in0.0 mm
11:50 AM 30.5°F-0.8°C 15.4°F-9.2°C 53% 7.0 mph SW11.3 kmh SW 15.0 mph24.1 kmh 30.14 in1020.7 mb 0.00 in0.0 mm 0.00 in/hr0.0 mm/hr 0.00 in0.0 mm
12:00 PM 30.7°F-0.7°C 16.0°F-8.9°C 54% 10.0 mph SW16.1 kmh SW 14.0 mph22.5 kmh 30.13 in1020.3 mb 0.00 in0.0 mm 0.00 in/hr0.0 mm/hr 0.00 in0.0 mm
12:10 PM 30.9°F-0.6°C 15.8°F-9.0°C 53% 7.0 mph SW11.3 kmh SW 12.0 mph19.3 kmh 30.12 in1020.0 mb 0.00 in0.0 mm 0.00 in/hr0.0 mm/hr 0.00 in0.0 mm
12:20 PM 31.2°F-0.4°C 16.5°F-8.6°C 54% 7.0 mph SW11.3 kmh SW 11.0 mph17.7 kmh 30.12 in1020.0 mb 0.00 in0.0 mm 0.00 in/hr0.0 mm/hr 0.00 in0.0 mm
12:30 PM 31.4°F-0.3°C 16.3°F-8.7°C 53% 5.0 mph WSW8.0 kmh WSW 13.0 mph20.9 kmh 30.13 in1020.3 mb 0.00 in0.0 mm 0.00 in/hr0.0 mm/hr 0.00 in0.0 mm
12:40 PM 31.7°F-0.2°C 16.5°F-8.6°C 53% 3.0 mph SW4.8 kmh SW 10.0 mph16.1 kmh 30.13 in1020.3 mb 0.00 in0.0 mm 0.00 in/hr0.0 mm/hr 0.00 in0.0 mm
12:50 PM 31.6°F-0.2°C 16.5°F-8.6°C 53% 9.0 mph SW14.5 kmh SW 13.0 mph20.9 kmh 30.13 in1020.3 mb 0.00 in0.0 mm 0.00 in/hr0.0 mm/hr 0.00 in0.0 mm
01:00 PM 31.8°F-0.1°C 16.6°F-8.6°C 53% 4.0 mph WSW6.4 kmh WSW 13.0 mph20.9 kmh 30.12 in1020.0 mb 0.00 in0.0 mm 0.00 in/hr0.0 mm/hr 0.00 in0.0 mm
01:10 PM 31.8°F-0.1°C 16.6°F-8.6°C 53% 3.0 mph SW4.8 kmh SW 15.0 mph24.1 kmh 30.11 in1019.6 mb 0.00 in0.0 mm 0.00 in/hr0.0 mm/hr 0.00 in0.0 mm
01:20 PM 32.1°F0.1°C 16.9°F-8.4°C 53% 14.0 mph WSW22.5 kmh WSW 14.0 mph22.5 kmh 30.10 in1019.3 mb 0.00 in0.0 mm 0.00 in/hr0.0 mm/hr 0.00 in0.0 mm
01:30 PM 32.6°F0.3°C 17.4°F-8.1°C 53% 5.0 mph SW8.0 kmh SW 14.0 mph22.5 kmh 30.09 in1019.0 mb 0.00 in0.0 mm 0.00 in/hr0.0 mm/hr 0.00 in0.0 mm
01:40 PM 32.9°F0.5°C 17.2°F-8.2°C 52% 3.0 mph SW4.8 kmh SW 12.0 mph19.3 kmh 30.09 in1019.0 mb 0.00 in0.0 mm 0.00 in/hr0.0 mm/hr 0.00 in0.0 mm
01:50 PM 33.0°F0.6°C 17.8°F-7.9°C 53% 3.0 mph SW4.8 kmh SW 12.0 mph19.3 kmh 30.09 in1019.0 mb 0.00 in0.0 mm 0.00 in/hr0.0 mm/hr 0.00 in0.0 mm
02:00 PM 33.3°F0.7°C 17.6°F-8.0°C 52% 13.0 mph SSW20.9 kmh SSW 14.0 mph22.5 kmh 30.09 in1019.0 mb 0.00 in0.0 mm 0.00 in/hr0.0 mm/hr 0.00 in0.0 mm
02:10 PM 33.7°F0.9°C 18.0°F-7.8°C 52% 4.0 mph SW6.4 kmh SW 14.0 mph22.5 kmh 30.09 in1019.0 mb 0.00 in0.0 mm 0.00 in/hr0.0 mm/hr 0.00 in0.0 mm
02:20 PM 35.3°F1.8°C 19.0°F-7.2°C 51% 9.0 mph SW14.5 kmh SW 11.0 mph17.7 kmh 30.08 in1018.6 mb 0.00 in0.0 mm 0.00 in/hr0.0 mm/hr 0.00 in0.0 mm
02:30 PM 35.5°F1.9°C 18.7°F-7.4°C 50% 5.0 mph SW8.0 kmh SW 13.0 mph20.9 kmh 30.07 in1018.3 mb 0.00 in0.0 mm 0.00 in/hr0.0 mm/hr 0.00 in0.0 mm
02:40 PM 36.0°F2.2°C 18.7°F-7.4°C 49% 5.0 mph SW8.0 kmh SW 13.0 mph20.9 kmh 30.06 in1017.9 mb 0.00 in0.0 mm 0.00 in/hr0.0 mm/hr 0.00 in0.0 mm
02:50 PM 36.2°F2.3°C 19.4°F-7.0°C 50% 3.0 mph WSW4.8 kmh WSW 14.0 mph22.5 kmh 30.06 in1017.9 mb 0.00 in0.0 mm 0.00 in/hr0.0 mm/hr 0.00 in0.0 mm
03:01 PM 36.7°F2.6°C 19.4°F-7.0°C 49% 4.0 mph SW6.4 kmh SW 16.0 mph25.7 kmh 30.06 in1017.9 mb 0.00 in0.0 mm 0.00 in/hr0.0 mm/hr 0.00 in0.0 mm
03:10 PM 37.1°F2.8°C 19.2°F-7.1°C 48% 10.0 mph WSW16.1 kmh WSW 16.0 mph25.7 kmh 30.05 in1017.6 mb 0.00 in0.0 mm 0.00 in/hr0.0 mm/hr 0.00 in0.0 mm
03:20 PM 37.3°F2.9°C 19.4°F-7.0°C 48% 11.0 mph SW17.7 kmh SW 13.0 mph20.9 kmh 30.03 in1016.9 mb 0.00 in0.0 mm 0.00 in/hr0.0 mm/hr 0.00 in0.0 mm
03:30 PM 37.6°F3.1°C 20.2°F-6.6°C 49% 7.0 mph SW11.3 kmh SW 14.0 mph22.5 kmh 30.03 in1016.9 mb 0.00 in0.0 mm 0.00 in/hr0.0 mm/hr 0.00 in0.0 mm
03:40 PM 38.0°F3.3°C 20.1°F-6.6°C 48% 6.0 mph SW9.7 kmh SW 13.0 mph20.9 kmh 30.02 in1016.6 mb 0.00 in0.0 mm 0.00 in/hr0.0 mm/hr 0.00 in0.0 mm
03:50 PM 37.7°F3.2°C 19.8°F-6.8°C 48% 6.0 mph SW9.7 kmh SW 16.0 mph25.7 kmh 30.02 in1016.6 mb 0.00 in0.0 mm 0.00 in/hr0.0 mm/hr 0.00 in0.0 mm
04:00 PM 38.3°F3.5°C 20.8°F-6.2°C 49% 8.0 mph SW12.9 kmh SW 15.0 mph24.1 kmh 30.02 in1016.6 mb 0.00 in0.0 mm 0.00 in/hr0.0 mm/hr 0.00 in0.0 mm
04:10 PM 38.9°F3.8°C 20.9°F-6.2°C 48% 6.0 mph SW9.7 kmh SW 12.0 mph19.3 kmh 30.03 in1016.9 mb 0.00 in0.0 mm 0.00 in/hr0.0 mm/hr 0.00 in0.0 mm
04:20 PM 38.2°F3.4°C 20.3°F-6.5°C 48% 4.0 mph SSW6.4 kmh SSW 13.0 mph20.9 kmh 30.03 in1016.9 mb 0.00 in0.0 mm 0.00 in/hr0.0 mm/hr 0.00 in0.0 mm
04:30 PM 38.9°F3.8°C 20.9°F-6.2°C 48% 7.0 mph SW11.3 kmh SW 11.0 mph17.7 kmh 30.03 in1016.9 mb 0.00 in0.0 mm 0.00 in/hr0.0 mm/hr 0.00 in0.0 mm
04:40 PM 38.8°F3.8°C 20.8°F-6.2°C 48% 6.0 mph WSW9.7 kmh WSW 13.0 mph20.9 kmh 30.04 in1017.3 mb 0.00 in0.0 mm 0.00 in/hr0.0 mm/hr 0.00 in0.0 mm
04:50 PM 38.9°F3.8°C 20.9°F-6.2°C 48% 5.0 mph SW8.0 kmh SW 9.0 mph14.5 kmh 30.04 in1017.3 mb 0.00 in0.0 mm 0.00 in/hr0.0 mm/hr 0.00 in0.0 mm
05:00 PM 38.7°F3.7°C 21.2°F-6.0°C 49% 4.0 mph SW6.4 kmh SW 13.0 mph20.9 kmh 30.05 in1017.6 mb 0.00 in0.0 mm 0.00 in/hr0.0 mm/hr 0.00 in0.0 mm
05:10 PM 39.0°F3.9°C 21.5°F-5.8°C 49% 6.0 mph WSW9.7 kmh WSW 10.0 mph16.1 kmh 30.05 in1017.6 mb 0.00 in0.0 mm 0.00 in/hr0.0 mm/hr 0.00 in0.0 mm
05:20 PM 38.6°F3.7°C 21.6°F-5.8°C 50% 3.0 mph SW4.8 kmh SW 12.0 mph19.3 kmh 30.05 in1017.6 mb 0.00 in0.0 mm 0.00 in/hr0.0 mm/hr 0.00 in0.0 mm
05:30 PM 38.4°F3.6°C 21.4°F-5.9°C 50% 4.0 mph SW6.4 kmh SW 10.0 mph16.1 kmh 30.05 in1017.6 mb 0.00 in0.0 mm 0.00 in/hr0.0 mm/hr 0.00 in0.0 mm
05:40 PM 38.4°F3.6°C 21.9°F-5.6°C 51% 4.0 mph SW6.4 kmh SW 11.0 mph17.7 kmh 30.06 in1017.9 mb 0.00 in0.0 mm 0.00 in/hr0.0 mm/hr 0.00 in0.0 mm
05:50 PM 38.0°F3.3°C 22.4°F-5.3°C 53% 4.0 mph SW6.4 kmh SW 7.0 mph11.3 kmh 30.06 in1017.9 mb 0.00 in0.0 mm 0.00 in/hr0.0 mm/hr 0.00 in0.0 mm
06:00 PM 38.2°F3.4°C 22.6°F-5.2°C 53% 2.0 mph SW3.2 kmh SW 10.0 mph16.1 kmh 30.06 in1017.9 mb 0.00 in0.0 mm 0.00 in/hr0.0 mm/hr 0.00 in0.0 mm
06:41 PM 36.9°F2.7°C 23.1°F-4.9°C 57% Calm Calm 2.0 mph3.2 kmh 30.06 in1017.9 mb 0.00 in0.0 mm 0.00 in/hr0.0 mm/hr 0.00 in0.0 mm
06:50 PM 36.5°F2.5°C 23.1°F-4.9°C 58% 2.0 mph SW3.2 kmh SW 4.0 mph6.4 kmh 30.06 in1017.9 mb 0.00 in0.0 mm 0.00 in/hr0.0 mm/hr 0.00 in0.0 mm
07:00 PM 36.4°F2.4°C 23.1°F-4.9°C 58% Calm Calm 4.0 mph6.4 kmh 30.06 in1017.9 mb 0.00 in0.0 mm 0.00 in/hr0.0 mm/hr 0.00 in0.0 mm
07:10 PM 36.1°F2.3°C 23.2°F-4.9°C 59% Calm Calm 4.0 mph6.4 kmh 30.07 in1018.3 mb 0.00 in0.0 mm 0.00 in/hr0.0 mm/hr 0.00 in0.0 mm
07:30 PM 35.4°F1.9°C 22.9°F-5.1°C 60% 1.0 mph SW1.6 kmh SW 3.0 mph4.8 kmh 30.07 in1018.3 mb 0.00 in0.0 mm 0.00 in/hr0.0 mm/hr 0.00 in0.0 mm
07:40 PM 34.6°F1.4°C 22.9°F-5.1°C 62% Calm Calm 1.0 mph1.6 kmh 30.08 in1018.6 mb 0.00 in0.0 mm 0.00 in/hr0.0 mm/hr 0.00 in0.0 mm
07:50 PM 34.5°F1.4°C 22.8°F-5.1°C 62% Calm Calm -- 30.08 in1018.6 mb 0.00 in0.0 mm 0.00 in/hr0.0 mm/hr 0.00 in0.0 mm
08:00 PM 34.0°F1.1°C 22.7°F-5.2°C 63% Calm Calm 2.0 mph3.2 kmh 30.09 in1019.0 mb 0.00 in0.0 mm 0.00 in/hr0.0 mm/hr 0.00 in0.0 mm
08:10 PM 34.2°F1.2°C 23.3°F-4.8°C 64% Calm Calm 2.0 mph3.2 kmh 30.09 in1019.0 mb 0.00 in0.0 mm 0.00 in/hr0.0 mm/hr 0.00 in0.0 mm
08:20 PM 34.1°F1.2°C 23.2°F-4.9°C 64% 2.0 mph SW3.2 kmh SW 2.0 mph3.2 kmh 30.09 in1019.0 mb 0.00 in0.0 mm 0.00 in/hr0.0 mm/hr 0.00 in0.0 mm
08:30 PM 33.2°F0.7°C 22.7°F-5.2°C 65% 1.0 mph SW1.6 kmh SW 1.0 mph1.6 kmh 30.09 in1019.0 mb 0.00 in0.0 mm 0.00 in/hr0.0 mm/hr 0.00 in0.0 mm
08:40 PM 32.5°F0.3°C 22.8°F-5.1°C 67% Calm Calm 1.0 mph1.6 kmh 30.09 in1019.0 mb 0.00 in0.0 mm 0.00 in/hr0.0 mm/hr 0.00 in0.0 mm
08:50 PM 34.0°F1.1°C 23.9°F-4.5°C 66% 1.0 mph WSW1.6 kmh WSW 5.0 mph8.0 kmh 30.09 in1019.0 mb 0.00 in0.0 mm 0.00 in/hr0.0 mm/hr 0.00 in0.0 mm
09:01 PM 34.4°F1.3°C 23.5°F-4.7°C 64% Calm Calm 3.0 mph4.8 kmh 30.09 in1019.0 mb 0.00 in0.0 mm 0.00 in/hr0.0 mm/hr 0.00 in0.0 mm
09:10 PM 34.5°F1.4°C 24.0°F-4.4°C 65% 1.0 mph SSW1.6 kmh SSW 4.0 mph6.4 kmh 30.09 in1019.0 mb 0.00 in0.0 mm 0.00 in/hr0.0 mm/hr 0.00 in0.0 mm
09:20 PM 35.2°F1.8°C 24.3°F-4.3°C 64% 2.0 mph SSW3.2 kmh SSW 4.0 mph6.4 kmh 30.09 in1019.0 mb 0.00 in0.0 mm 0.00 in/hr0.0 mm/hr 0.00 in0.0 mm
09:30 PM 35.6°F2.0°C 24.6°F-4.1°C 64% Calm Calm 6.0 mph9.7 kmh 30.09 in1019.0 mb 0.00 in0.0 mm 0.00 in/hr0.0 mm/hr 0.00 in0.0 mm
09:40 PM 35.7°F2.1°C 24.7°F-4.1°C 64% Calm Calm 4.0 mph6.4 kmh 30.09 in1019.0 mb 0.00 in0.0 mm 0.00 in/hr0.0 mm/hr 0.00 in0.0 mm
09:50 PM 35.9°F2.2°C 24.9°F-3.9°C 64% 1.0 mph SW1.6 kmh SW 5.0 mph8.0 kmh 30.09 in1019.0 mb 0.00 in0.0 mm 0.00 in/hr0.0 mm/hr 0.00 in0.0 mm
10:00 PM 35.9°F2.2°C 25.3°F-3.7°C 65% 1.0 mph SW1.6 kmh SW 4.0 mph6.4 kmh 30.09 in1019.0 mb 0.00 in0.0 mm 0.00 in/hr0.0 mm/hr 0.00 in0.0 mm
10:10 PM 36.1°F2.3°C 25.5°F-3.6°C 65% 2.0 mph SSW3.2 kmh SSW 9.0 mph14.5 kmh 30.08 in1018.6 mb 0.00 in0.0 mm 0.00 in/hr0.0 mm/hr 0.00 in0.0 mm
10:20 PM 36.2°F2.3°C 26.0°F-3.3°C 66% 5.0 mph SW8.0 kmh SW 6.0 mph9.7 kmh 30.08 in1018.6 mb 0.00 in0.0 mm 0.00 in/hr0.0 mm/hr 0.00 in0.0 mm
10:30 PM 36.4°F2.4°C 26.1°F-3.3°C 66% Calm Calm 6.0 mph9.7 kmh 30.09 in1019.0 mb 0.00 in0.0 mm 0.00 in/hr0.0 mm/hr 0.00 in0.0 mm
10:40 PM 36.6°F2.6°C 26.3°F-3.2°C 66% 2.0 mph WSW3.2 kmh WSW 7.0 mph11.3 kmh 30.08 in1018.6 mb 0.00 in0.0 mm 0.00 in/hr0.0 mm/hr 0.00 in0.0 mm
10:50 PM 36.6°F2.6°C 26.3°F-3.2°C 66% 2.0 mph WSW3.2 kmh WSW 5.0 mph8.0 kmh 30.09 in1019.0 mb 0.00 in0.0 mm 0.00 in/hr0.0 mm/hr 0.00 in0.0 mm
11:01 PM 36.7°F2.6°C 26.8°F-2.9°C 67% 4.0 mph WSW6.4 kmh WSW 7.0 mph11.3 kmh 30.09 in1019.0 mb 0.00 in0.0 mm 0.00 in/hr0.0 mm/hr 0.00 in0.0 mm
11:10 PM 36.6°F2.6°C 27.1°F-2.7°C 68% 3.0 mph W4.8 kmh W 7.0 mph11.3 kmh 30.09 in1019.0 mb 0.00 in0.0 mm 0.00 in/hr0.0 mm/hr 0.00 in0.0 mm
11:20 PM 36.5°F2.5°C 27.0°F-2.8°C 68% 2.0 mph WSW3.2 kmh WSW 5.0 mph8.0 kmh 30.09 in1019.0 mb 0.00 in0.0 mm 0.00 in/hr0.0 mm/hr 0.00 in0.0 mm
11:30 PM 36.5°F2.5°C 27.3°F-2.6°C 69% 3.0 mph WSW4.8 kmh WSW 4.0 mph6.4 kmh 30.09 in1019.0 mb 0.00 in0.0 mm 0.00 in/hr0.0 mm/hr 0.00 in0.0 mm
11:40 PM 36.5°F2.5°C 27.3°F-2.6°C 69% 3.0 mph W4.8 kmh W 6.0 mph9.7 kmh 30.10 in1019.3 mb 0.00 in0.0 mm 0.00 in/hr0.0 mm/hr 0.00 in0.0 mm
11:50 PM 36.5°F2.5°C 27.3°F-2.6°C 69% 5.0 mph WSW8.0 kmh WSW 9.0 mph14.5 kmh 30.09 in1019.0 mb 0.00 in0.0 mm 0.00 in/hr0.0 mm/hr 0.00 in0.0 mm